createdAt,value
2024-01-14T00:00:47.562Z,-4.40
2024-01-14T00:03:15.898Z,-4.40
2024-01-14T00:05:44.136Z,-4.40
2024-01-14T00:08:12.258Z,-4.40
2024-01-14T00:10:40.382Z,-4.40
2024-01-14T00:13:08.470Z,-4.40
2024-01-14T00:15:36.651Z,-4.40
2024-01-14T00:18:06.861Z,-4.50
2024-01-14T00:20:35.062Z,-4.40
2024-01-14T00:23:03.214Z,-4.40
2024-01-14T00:25:32.043Z,-4.40
2024-01-14T00:28:00.130Z,-4.40
2024-01-14T00:30:28.439Z,-4.40
2024-01-14T00:32:56.863Z,-4.30
2024-01-14T00:35:26.429Z,-4.40
2024-01-14T00:37:55.453Z,-4.40
2024-01-14T00:40:23.869Z,-4.40
2024-01-14T00:42:51.943Z,-4.40
2024-01-14T00:45:20.117Z,-4.30
2024-01-14T00:47:48.357Z,-4.40
2024-01-14T00:50:16.629Z,-4.40
2024-01-14T00:52:46.104Z,-4.40
2024-01-14T00:55:14.527Z,-4.40
2024-01-14T00:57:42.727Z,-4.50
2024-01-14T01:00:12.155Z,-4.50
2024-01-14T01:02:40.336Z,-4.50
2024-01-14T01:05:10.041Z,-4.50
2024-01-14T01:07:38.156Z,-4.50
2024-01-14T01:10:08.478Z,-4.50
2024-01-14T01:12:36.769Z,-4.50
2024-01-14T01:15:06.540Z,-4.40
2024-01-14T01:17:35.276Z,-4.40
2024-01-14T01:20:04.282Z,-4.40
2024-01-14T01:22:32.536Z,-4.40
2024-01-14T01:25:00.773Z,-4.40
2024-01-14T01:27:31.408Z,-4.40
2024-01-14T01:29:59.963Z,-4.40
2024-01-14T01:32:28.497Z,-4.40
2024-01-14T01:34:56.995Z,-4.40
2024-01-14T01:37:25.239Z,-4.30
2024-01-14T01:39:53.342Z,-4.40
2024-01-14T01:42:21.514Z,-4.30
2024-01-14T01:44:51.026Z,-4.40
2024-01-14T01:47:19.320Z,-4.40
2024-01-14T01:49:48.604Z,-4.40
2024-01-14T01:52:17.194Z,-4.40
2024-01-14T01:54:46.730Z,-4.40
2024-01-14T01:57:15.699Z,-4.40
2024-01-14T01:59:46.526Z,-4.40
2024-01-14T02:02:16.697Z,-4.40
2024-01-14T02:04:45.174Z,-4.40
2024-01-14T02:07:13.917Z,-4.50
2024-01-14T02:09:42.084Z,-4.40
2024-01-14T02:12:10.641Z,-4.40
2024-01-14T02:14:38.884Z,-4.40
2024-01-14T02:17:07.199Z,-4.40
2024-01-14T02:19:36.769Z,-4.40
2024-01-14T02:22:10.310Z,-4.40
2024-01-14T02:24:41.466Z,-4.40
2024-01-14T02:27:10.375Z,-4.40
2024-01-14T02:29:40.748Z,-4.40
2024-01-14T02:32:08.948Z,-4.40
2024-01-14T02:34:37.880Z,-4.40
2024-01-14T02:37:06.152Z,-4.50
2024-01-14T02:39:34.655Z,-4.50
2024-01-14T02:42:04.451Z,-4.50
2024-01-14T02:44:32.652Z,-4.50
2024-01-14T02:47:00.731Z,-4.60
2024-01-14T02:49:29.105Z,-4.70
2024-01-14T02:51:57.382Z,-4.70
2024-01-14T02:54:25.453Z,-4.70
2024-01-14T02:56:58.122Z,-4.70
2024-01-14T02:59:28.418Z,-4.70
2024-01-14T03:01:56.746Z,-4.70
2024-01-14T03:04:25.010Z,-4.70
2024-01-14T03:06:53.209Z,-4.70
2024-01-14T03:09:21.414Z,-4.70
2024-01-14T03:11:49.530Z,-4.70
2024-01-14T03:14:17.706Z,-4.70
2024-01-14T03:16:47.161Z,-4.80
2024-01-14T03:19:14.582Z,-4.80
2024-01-14T03:21:42.872Z,-4.80
2024-01-14T03:24:11.065Z,-4.80
2024-01-14T03:26:39.267Z,-4.80
2024-01-14T03:29:07.448Z,-4.80
2024-01-14T03:31:35.576Z,-4.80
2024-01-14T03:34:05.144Z,-4.80
2024-01-14T03:36:33.399Z,-4.90
2024-01-14T03:39:01.764Z,-4.90
2024-01-14T03:41:29.937Z,-4.90
2024-01-14T03:43:58.053Z,-4.90
2024-01-14T03:46:26.492Z,-5.00
2024-01-14T03:48:54.786Z,-5.00
2024-01-14T03:51:24.557Z,-5.00
2024-01-14T03:53:52.837Z,-5.00
2024-01-14T03:56:20.996Z,-5.00
2024-01-14T03:58:49.053Z,-5.00
2024-01-14T04:01:20.419Z,-5.00
2024-01-14T04:03:49.526Z,-5.00
2024-01-14T04:06:21.417Z,-5.00
2024-01-14T04:08:51.094Z,-5.00
2024-01-14T04:11:19.226Z,-5.00
2024-01-14T04:13:47.471Z,-5.00
2024-01-14T04:16:15.581Z,-5.00
2024-01-14T04:18:43.727Z,-5.00
2024-01-14T04:21:22.152Z,-5.00
2024-01-14T04:23:51.951Z,-4.90
2024-01-14T04:26:21.692Z,-4.90
2024-01-14T04:28:50.019Z,-5.00
2024-01-14T04:31:18.513Z,-4.90
2024-01-14T04:33:47.125Z,-4.80
2024-01-14T04:36:17.090Z,-4.80
2024-01-14T04:38:45.915Z,-4.90
2024-01-14T04:41:15.320Z,-4.90
2024-01-14T04:43:43.494Z,-4.90
2024-01-14T04:46:12.912Z,-4.90
2024-01-14T04:48:41.505Z,-4.90
2024-01-14T04:51:09.810Z,-4.90
2024-01-14T04:53:37.867Z,-4.90
2024-01-14T04:56:10.384Z,-4.80
2024-01-14T04:58:40.547Z,-4.80
2024-01-14T05:01:08.852Z,-4.90
2024-01-14T05:03:37.108Z,-4.90
2024-01-14T05:06:06.486Z,-4.90
2024-01-14T05:08:34.867Z,-4.90
2024-01-14T05:11:03.012Z,-4.90
2024-01-14T05:13:31.132Z,-4.90
2024-01-14T05:16:00.751Z,-4.90
2024-01-14T05:18:29.555Z,-4.90
2024-01-14T05:20:58.264Z,-4.90
2024-01-14T05:23:26.561Z,-4.90
2024-01-14T05:25:54.951Z,-4.70
2024-01-14T05:28:23.023Z,-4.80
2024-01-14T05:30:51.185Z,-4.80
2024-01-14T05:33:20.870Z,-4.50
2024-01-14T05:35:49.152Z,-4.60
2024-01-14T05:38:16.279Z,-4.70
2024-01-14T05:40:44.460Z,-4.60
2024-01-14T05:43:12.604Z,-4.80
2024-01-14T05:45:41.435Z,-4.70
2024-01-14T05:48:10.037Z,-4.60
2024-01-14T05:50:39.587Z,-4.70
2024-01-14T05:53:07.787Z,-4.80
2024-01-14T05:55:35.827Z,-4.70
2024-01-14T05:58:04.012Z,-4.80
2024-01-14T06:00:32.207Z,-4.90
2024-01-14T06:03:00.469Z,-4.80
2024-01-14T06:05:28.729Z,-4.90
2024-01-14T06:07:58.276Z,-4.90
2024-01-14T06:10:27.440Z,-4.90
2024-01-14T06:12:55.561Z,-4.90
2024-01-14T06:15:23.659Z,-5.00
2024-01-14T06:17:52.003Z,-5.00
2024-01-14T06:20:20.296Z,-5.00
2024-01-14T06:22:48.436Z,-5.00
2024-01-14T06:25:18.107Z,-5.00
2024-01-14T06:27:46.168Z,-5.10
2024-01-14T06:30:15.842Z,-5.10
2024-01-14T06:32:44.117Z,-5.10
2024-01-14T06:35:12.215Z,-5.10
2024-01-14T06:37:40.314Z,-5.00
2024-01-14T06:40:09.417Z,-5.10
2024-01-14T06:42:38.982Z,-5.10
2024-01-14T06:45:09.717Z,-5.10
2024-01-14T06:47:38.052Z,-5.10
2024-01-14T06:50:13.888Z,-5.10
2024-01-14T06:52:43.674Z,-5.10
2024-01-14T06:55:14.928Z,-5.20
2024-01-14T06:57:44.592Z,-5.20
2024-01-14T07:00:14.149Z,-5.20
2024-01-14T07:02:42.228Z,-5.30
2024-01-14T07:05:11.622Z,-5.40
2024-01-14T07:07:39.888Z,-5.50
2024-01-14T07:10:08.808Z,-5.60
2024-01-14T07:12:36.989Z,-5.60
2024-01-14T07:15:07.438Z,-5.60
2024-01-14T07:17:54.021Z,-5.70
2024-01-14T07:20:23.976Z,-5.70
2024-01-14T07:22:52.071Z,-5.70
2024-01-14T07:25:20.147Z,-5.80
2024-01-14T07:27:48.229Z,-5.70
2024-01-14T07:30:19.486Z,-5.80
2024-01-14T07:32:47.756Z,-5.80
2024-01-14T07:35:15.823Z,-5.70
2024-01-14T07:37:43.901Z,-5.70
2024-01-14T07:40:12.649Z,-5.70
2024-01-14T07:42:40.730Z,-5.60
2024-01-14T07:45:10.211Z,-5.70
2024-01-14T07:47:39.767Z,-5.60
2024-01-14T07:50:08.589Z,-5.70
2024-01-14T07:52:36.725Z,-5.80
2024-01-14T07:55:05.156Z,-5.70
2024-01-14T07:57:33.657Z,-5.80
2024-01-14T08:00:02.023Z,-5.80
2024-01-14T08:02:41.214Z,-5.80
2024-01-14T08:05:13.644Z,-5.60
2024-01-14T08:07:42.329Z,-5.70
2024-01-14T08:10:12.658Z,-5.60
2024-01-14T08:12:42.451Z,-5.60
2024-01-14T08:15:11.234Z,-5.60
2024-01-14T08:17:40.717Z,-4.70
2024-01-14T08:20:12.180Z,-4.20
2024-01-14T08:22:41.080Z,-5.30
2024-01-14T08:25:10.673Z,-5.30
2024-01-14T08:27:39.312Z,-5.30
2024-01-14T08:30:08.836Z,-5.20
2024-01-14T08:32:37.369Z,-5.00
2024-01-14T08:35:07.994Z,-5.00
2024-01-14T08:37:36.451Z,-4.90
2024-01-14T08:40:05.033Z,-4.90
2024-01-14T08:42:33.299Z,-4.80
2024-01-14T08:45:01.560Z,-4.80
2024-01-14T08:47:30.089Z,-4.60
2024-01-14T08:49:58.598Z,-4.70
2024-01-14T08:52:28.759Z,-4.50
2024-01-14T08:54:56.800Z,-4.20
2024-01-14T08:57:25.384Z,-4.40
2024-01-14T08:59:57.844Z,-4.40
2024-01-14T09:02:26.918Z,-4.30
2024-01-14T09:04:55.132Z,-4.30
2024-01-14T09:07:23.173Z,-4.50
2024-01-14T09:09:52.757Z,-4.50
2024-01-14T09:12:20.886Z,-4.50
2024-01-14T09:14:49.276Z,-4.50
2024-01-14T09:17:17.362Z,-4.50
2024-01-14T09:19:46.847Z,-4.50
2024-01-14T09:22:15.039Z,-4.30
2024-01-14T09:24:46.460Z,-4.10
2024-01-14T09:27:17.065Z,-3.80
2024-01-14T09:29:45.435Z,-3.80
2024-01-14T09:32:13.511Z,-3.90
2024-01-14T09:34:42.241Z,-3.80
2024-01-14T09:37:10.513Z,-3.70
2024-01-14T09:39:38.890Z,-3.70
2024-01-14T09:42:22.033Z,-3.60
2024-01-14T09:44:56.630Z,-3.60
2024-01-14T09:47:24.781Z,-3.50
2024-01-14T09:49:54.160Z,-3.40
2024-01-14T09:52:23.983Z,-3.40
2024-01-14T09:54:52.160Z,-3.70
2024-01-14T09:57:21.576Z,-3.80
2024-01-14T09:59:52.114Z,-3.70
2024-01-14T10:02:20.924Z,-3.70
2024-01-14T10:04:50.009Z,-3.70
2024-01-14T10:07:19.378Z,-3.60
2024-01-14T10:09:48.276Z,-3.50
2024-01-14T10:12:17.101Z,-3.60
2024-01-14T10:14:45.516Z,-3.30
2024-01-14T10:17:17.169Z,-3.30
2024-01-14T10:19:46.446Z,-3.40
2024-01-14T10:22:17.888Z,-3.30
2024-01-14T10:24:52.826Z,-3.30
2024-01-14T10:27:34.130Z,-3.40
2024-01-14T10:30:10.119Z,-3.30
2024-01-14T10:33:15.753Z,-3.30
2024-01-14T10:35:29.685Z,-3.10
2024-01-14T10:37:59.133Z,-2.90
2024-01-14T10:40:28.217Z,-2.80
2024-01-14T10:42:56.458Z,-2.70
2024-01-14T10:45:25.515Z,-2.50
2024-01-14T10:47:59.135Z,-2.40
2024-01-14T10:50:38.140Z,-2.40
2024-01-14T10:53:20.052Z,-2.40
2024-01-14T10:55:50.258Z,-2.30
2024-01-14T10:58:26.565Z,-2.30
2024-01-14T11:00:59.217Z,-2.30
2024-01-14T11:03:30.443Z,-2.20
2024-01-14T11:06:00.435Z,-1.90
2024-01-14T11:08:29.428Z,-1.90
2024-01-14T11:10:57.994Z,-1.90
2024-01-14T11:13:32.047Z,-1.90
2024-01-14T11:16:09.844Z,-1.70
2024-01-14T11:18:45.422Z,-1.60
2024-01-14T11:21:54.557Z,-1.70
2024-01-14T11:24:30.631Z,-1.50
2024-01-14T11:27:00.143Z,-1.30
2024-01-14T11:29:35.427Z,-1.00
2024-01-14T11:32:08.079Z,-1.20
2024-01-14T11:35:01.897Z,-0.70
2024-01-14T11:37:48.569Z,-0.50
2024-01-14T11:40:25.527Z,-0.10
2024-01-14T11:42:57.553Z,-0.40
2024-01-14T11:45:42.588Z,-0.10
2024-01-14T11:48:13.877Z,0.10
2024-01-14T11:50:42.999Z,0.00
2024-01-14T11:53:11.954Z,0.40
2024-01-14T11:55:40.572Z,0.60
2024-01-14T11:58:13.368Z,-0.40
2024-01-14T12:00:42.587Z,-0.40
2024-01-14T12:03:12.775Z,-0.40
2024-01-14T12:05:43.743Z,-0.20
2024-01-14T12:08:12.921Z,1.30
2024-01-14T12:10:41.701Z,1.90
2024-01-14T12:13:11.063Z,0.10
2024-01-14T12:15:40.491Z,-0.40
2024-01-14T12:18:13.748Z,-0.30
2024-01-14T12:20:44.201Z,0.00
2024-01-14T12:23:13.174Z,-0.30
2024-01-14T12:25:41.255Z,-0.10
2024-01-14T12:28:09.500Z,-0.10
2024-01-14T12:30:38.294Z,0.00
2024-01-14T12:33:10.328Z,-0.20
2024-01-14T12:35:39.863Z,0.00
2024-01-14T12:38:10.894Z,0.20
2024-01-14T12:40:39.542Z,0.20
2024-01-14T12:43:08.675Z,0.70
2024-01-14T12:45:36.952Z,1.40
2024-01-14T12:48:07.161Z,1.00
2024-01-14T12:50:37.910Z,0.80
2024-01-14T12:53:12.941Z,0.70
2024-01-14T12:55:42.390Z,0.70
2024-01-14T12:58:11.045Z,0.20
2024-01-14T13:00:40.509Z,0.10
2024-01-14T13:03:09.306Z,0.80
2024-01-14T13:05:38.740Z,0.40
2024-01-14T13:08:07.536Z,0.60
2024-01-14T13:10:37.516Z,1.30
2024-01-14T13:13:06.059Z,1.10
2024-01-14T13:15:34.239Z,0.80
2024-01-14T13:18:04.524Z,0.60
2024-01-14T13:20:33.279Z,0.70
2024-01-14T13:23:01.455Z,0.60
2024-01-14T13:25:29.482Z,0.90
2024-01-14T13:27:59.040Z,2.40
2024-01-14T13:30:27.364Z,1.70
2024-01-14T13:32:55.627Z,2.30
2024-01-14T13:35:23.958Z,2.60
2024-01-14T13:37:52.266Z,2.40
2024-01-14T13:40:20.449Z,2.10
2024-01-14T13:42:48.774Z,3.40
2024-01-14T13:45:18.605Z,3.50
2024-01-14T13:47:46.910Z,2.70
2024-01-14T13:50:15.508Z,4.00
2024-01-14T13:52:43.838Z,3.00
2024-01-14T13:55:12.097Z,3.50
2024-01-14T13:57:40.426Z,4.40
2024-01-14T14:00:09.859Z,4.80
2024-01-14T14:02:39.998Z,4.10
2024-01-14T14:05:10.390Z,4.90
2024-01-14T14:07:40.020Z,5.60
2024-01-14T14:10:10.775Z,3.60
2024-01-14T14:12:39.232Z,3.90
2024-01-14T14:15:08.642Z,4.50
2024-01-14T14:17:37.191Z,4.40
2024-01-14T14:20:08.383Z,4.60
2024-01-14T14:22:37.094Z,3.80
2024-01-14T14:25:06.568Z,4.10
2024-01-14T14:27:34.752Z,4.40
2024-01-14T14:30:03.185Z,4.10
2024-01-14T14:32:31.825Z,7.40
2024-01-14T14:35:00.454Z,5.40
2024-01-14T14:37:30.066Z,4.40
2024-01-14T14:39:58.135Z,4.40
2024-01-14T14:42:26.296Z,4.80
2024-01-14T14:44:54.548Z,5.30
2024-01-14T14:47:22.673Z,5.10
2024-01-14T14:49:51.029Z,4.90
2024-01-14T14:52:19.440Z,5.20
2024-01-14T14:54:51.350Z,4.50
2024-01-14T14:57:19.704Z,4.50
2024-01-14T14:59:47.932Z,4.00
2024-01-14T15:02:16.176Z,4.30
2024-01-14T15:04:45.967Z,4.40
2024-01-14T15:07:14.956Z,4.10
2024-01-14T15:09:43.174Z,3.30
2024-01-14T15:12:13.256Z,2.60
2024-01-14T15:14:41.383Z,2.60
2024-01-14T15:17:09.519Z,2.80
2024-01-14T15:19:38.930Z,2.30
2024-01-14T15:22:13.660Z,1.90
2024-01-14T15:24:42.885Z,1.80
2024-01-14T15:27:13.299Z,1.90
2024-01-14T15:29:41.871Z,1.70
2024-01-14T15:32:10.172Z,1.40
2024-01-14T15:34:38.803Z,1.10
2024-01-14T15:37:07.093Z,0.90
2024-01-14T15:39:35.215Z,0.60
2024-01-14T15:42:03.602Z,0.30
2024-01-14T15:44:34.117Z,0.10
2024-01-14T15:47:04.356Z,-0.30
2024-01-14T15:49:32.689Z,-0.70
2024-01-14T15:52:01.139Z,-0.80
2024-01-14T15:54:29.240Z,-0.90
2024-01-14T15:56:57.382Z,-1.10
2024-01-14T15:59:25.461Z,-1.20
2024-01-14T16:01:55.064Z,-1.40
2024-01-14T16:04:23.344Z,-1.50
2024-01-14T16:06:51.555Z,-1.70
2024-01-14T16:09:19.860Z,-1.80
2024-01-14T16:11:48.025Z,-1.90
2024-01-14T16:14:16.096Z,-1.80
2024-01-14T16:16:44.412Z,-1.80
2024-01-14T16:19:15.929Z,-2.00
2024-01-14T16:21:45.357Z,-2.10
2024-01-14T16:24:13.497Z,-2.10
2024-01-14T16:26:42.432Z,-2.20
2024-01-14T16:29:10.589Z,-2.40
2024-01-14T16:31:38.747Z,-2.50
2024-01-14T16:34:07.025Z,-2.50
2024-01-14T16:36:36.670Z,-2.70
2024-01-14T16:39:04.989Z,-2.80
2024-01-14T16:41:33.093Z,-2.90
2024-01-14T16:44:01.357Z,-3.20
2024-01-14T16:46:29.585Z,-3.30
2024-01-14T16:48:58.935Z,-3.40
2024-01-14T16:51:27.513Z,-3.50
2024-01-14T16:53:58.343Z,-3.50
2024-01-14T16:56:36.191Z,-3.60
2024-01-14T16:59:09.322Z,-3.60
2024-01-14T17:01:37.570Z,-3.70
2024-01-14T17:04:06.387Z,-3.70
2024-01-14T17:06:34.574Z,-3.80
2024-01-14T17:09:05.542Z,-3.90
2024-01-14T17:11:34.037Z,-3.90
2024-01-14T17:14:02.243Z,-4.00
2024-01-14T17:16:30.661Z,-4.10
2024-01-14T17:19:01.006Z,-4.10
2024-01-14T17:21:29.899Z,-4.20
2024-01-14T17:23:59.607Z,-4.30
2024-01-14T17:26:29.263Z,-4.30
2024-01-14T17:28:57.327Z,-4.40
2024-01-14T17:31:25.579Z,-4.40
2024-01-14T17:33:54.311Z,-4.50
2024-01-14T17:36:23.527Z,-4.40
2024-01-14T17:38:52.455Z,-4.60
2024-01-14T17:41:20.771Z,-4.70
2024-01-14T17:43:50.442Z,-4.80
2024-01-14T17:46:21.964Z,-5.00
2024-01-14T17:48:52.655Z,-5.00
2024-01-14T17:51:22.704Z,-5.00
2024-01-14T17:53:52.060Z,-5.10
2024-01-14T17:56:20.537Z,-5.40
2024-01-14T17:58:50.552Z,-5.40
2024-01-14T18:01:18.820Z,-5.40
2024-01-14T18:03:46.998Z,-5.40
2024-01-14T18:06:15.465Z,-5.20
2024-01-14T18:08:44.444Z,-5.40
2024-01-14T18:11:12.588Z,-5.40
2024-01-14T18:13:40.850Z,-5.50
2024-01-14T18:16:12.279Z,-5.40
2024-01-14T18:18:41.744Z,-5.50
2024-01-14T18:21:14.719Z,-5.70
2024-01-14T18:23:42.917Z,-5.80
2024-01-14T18:26:11.033Z,-5.80
2024-01-14T18:28:39.137Z,-5.80
2024-01-14T18:31:07.360Z,-6.00
2024-01-14T18:36:32.172Z,-5.90
2024-01-14T18:39:00.455Z,-5.90
2024-01-14T18:41:28.800Z,-6.00
2024-01-14T18:43:57.381Z,-6.00
2024-01-14T18:46:25.598Z,-5.90
2024-01-14T18:48:53.791Z,-5.90
2024-01-14T18:51:22.609Z,-5.90
2024-01-14T18:53:52.790Z,-5.80
2024-01-14T18:56:21.691Z,-5.70
2024-01-14T18:58:49.932Z,-5.70
2024-01-14T19:01:18.524Z,-5.70
2024-01-14T19:03:46.973Z,-5.60
2024-01-14T19:06:15.319Z,-5.60
2024-01-14T19:08:43.497Z,-5.60
2024-01-14T19:11:13.894Z,-5.50
2024-01-14T19:13:42.148Z,-5.50
2024-01-14T19:16:10.205Z,-5.50
2024-01-14T19:18:38.746Z,-5.50
2024-01-14T19:21:06.982Z,-5.40
2024-01-14T19:23:35.403Z,-5.50
2024-01-14T19:26:03.540Z,-5.50
2024-01-14T19:28:33.059Z,-5.60
2024-01-14T19:31:03.366Z,-5.60
2024-01-14T19:33:31.899Z,-5.60
2024-01-14T19:36:00.395Z,-5.70
2024-01-14T19:38:28.910Z,-5.70
2024-01-14T19:40:58.965Z,-5.80
2024-01-14T19:43:29.120Z,-5.80
2024-01-14T19:46:00.462Z,-5.70
2024-01-14T19:48:29.995Z,-5.90
2024-01-14T19:50:58.702Z,-5.90
2024-01-14T19:53:26.818Z,-5.90
2024-01-14T19:55:55.043Z,-5.90
2024-01-14T19:58:23.393Z,-5.80
2024-01-14T20:00:51.829Z,-5.90
2024-01-14T20:03:21.881Z,-6.00
2024-01-14T20:05:50.408Z,-6.10
2024-01-14T20:08:18.639Z,-6.20
2024-01-14T20:10:46.715Z,-6.10
2024-01-14T20:13:14.946Z,-6.10
2024-01-14T20:15:44.501Z,-6.10
2024-01-14T20:18:12.837Z,-6.10
2024-01-14T20:20:42.331Z,-6.10
2024-01-14T20:23:10.394Z,-5.90
2024-01-14T20:25:38.853Z,-5.90
2024-01-14T20:28:07.012Z,-5.90
2024-01-14T20:30:35.284Z,-6.00
2024-01-14T20:33:03.677Z,-5.90
2024-01-14T20:35:31.811Z,-6.00
2024-01-14T20:38:01.630Z,-5.80
2024-01-14T20:40:29.812Z,-5.60
2024-01-14T20:43:00.739Z,-5.90
2024-01-14T20:45:30.225Z,-5.60
2024-01-14T20:47:59.665Z,-5.70
2024-01-14T20:50:28.047Z,-5.70
2024-01-14T20:52:56.216Z,-5.90
2024-01-14T20:55:25.897Z,-6.00
2024-01-14T20:57:54.087Z,-5.90
2024-01-14T21:00:22.903Z,-6.00
2024-01-14T21:02:52.049Z,-5.60
2024-01-14T21:05:21.108Z,-5.40
2024-01-14T21:07:49.411Z,-5.40
2024-01-14T21:10:17.751Z,-5.50
2024-01-14T21:12:47.219Z,-5.60
2024-01-14T21:15:15.535Z,-5.80
2024-01-14T21:17:43.831Z,-6.30
2024-01-14T21:20:13.006Z,-6.20
2024-01-14T21:22:41.139Z,-6.00
2024-01-14T21:25:09.734Z,-6.10
2024-01-14T21:27:38.149Z,-6.40
2024-01-14T21:30:10.098Z,-6.60
2024-01-14T21:32:38.528Z,-6.80
2024-01-14T21:35:07.440Z,-6.80
2024-01-14T21:37:35.605Z,-6.70
2024-01-14T21:40:03.794Z,-6.70
2024-01-14T21:42:32.112Z,-6.30
2024-01-14T21:45:01.027Z,-6.50
2024-01-14T21:47:30.720Z,-6.40
2024-01-14T21:49:59.061Z,-6.40
2024-01-14T21:52:27.329Z,-6.30
2024-01-14T21:54:55.407Z,-6.20
2024-01-14T21:57:24.557Z,-6.20
2024-01-14T21:59:53.085Z,-6.10
2024-01-14T22:02:21.253Z,-6.00
2024-01-14T22:04:50.777Z,-5.90
2024-01-14T22:07:20.206Z,-5.80
2024-01-14T22:09:48.384Z,-5.70
2024-01-14T22:12:16.644Z,-5.60
2024-01-14T22:14:44.915Z,-5.50
2024-01-14T22:17:13.422Z,-5.50
2024-01-14T22:19:42.559Z,-5.50
2024-01-14T22:22:12.633Z,-5.30
2024-01-14T22:24:44.133Z,-5.30
2024-01-14T22:27:12.608Z,-5.40
2024-01-14T22:29:41.119Z,-5.30
2024-01-14T22:32:09.296Z,-5.30
2024-01-14T22:34:37.558Z,-5.30
2024-01-14T22:37:06.331Z,-5.10
2024-01-14T22:39:35.994Z,-4.90
2024-01-14T22:42:04.644Z,-5.00
2024-01-14T22:44:32.851Z,-5.00
2024-01-14T22:47:01.308Z,-4.90
2024-01-14T22:49:29.583Z,-4.80
2024-01-14T22:51:57.937Z,-4.70
2024-01-14T22:54:26.932Z,-4.50
2024-01-14T22:56:56.453Z,-4.40
2024-01-14T22:59:24.694Z,-4.40
2024-01-14T23:01:52.892Z,-4.40
2024-01-14T23:04:21.175Z,-4.40
2024-01-14T23:06:49.545Z,-4.40
2024-01-14T23:09:18.425Z,-4.30
2024-01-14T23:11:46.605Z,-4.20
2024-01-14T23:14:16.103Z,-4.10
2024-01-14T23:16:44.241Z,-4.10
2024-01-14T23:19:12.667Z,-4.00
2024-01-14T23:21:41.692Z,-4.00
2024-01-14T23:24:10.518Z,-4.10
2024-01-14T23:26:38.948Z,-4.20
2024-01-14T23:29:07.184Z,-4.30
2024-01-14T23:31:37.268Z,-4.40
2024-01-14T23:34:06.138Z,-4.30
2024-01-14T23:36:34.379Z,-4.00
2024-01-14T23:39:02.623Z,-4.20
2024-01-14T23:41:30.835Z,-3.80
2024-01-14T23:43:58.899Z,-3.40
2024-01-14T23:46:29.641Z,-3.20
2024-01-14T23:49:01.042Z,-3.70
2024-01-14T23:51:29.433Z,-3.50
2024-01-14T23:53:57.852Z,-3.40
2024-01-14T23:56:26.873Z,-3.50
2024-01-14T23:58:56.728Z,-3.80
